Time;durP1;ratioP1;P1;durP2;ratioP2;P2;SDS_P1;SDS_P2;PMS_P1;PMS_P2;Temp;Humidity;BMP_temperature;BMP_pressure;BME280_temperature;BME280_humidity;BME280_pressure;Samples;Min_cycle;Max_cycle;Signal;HPM_P1;HPM_P2
2022/07/31 00:01:33;;;;;;;;;;;23.20;38.40;;;;;;4953333;28;20394;-88
2022/07/31 00:03:59;;;;;;;;;;;23.20;38.60;;;;;;4961839;28;19974;-88
2022/07/31 00:06:24;;;;;;;;;;;23.10;39.10;;;;;;4974053;28;20010;-90
2022/07/31 00:08:50;;;;;;;;;;;23.10;39.20;;;;;;4975273;28;19914;-89
2022/07/31 00:11:15;;;;;;;;;;;23.00;39.30;;;;;;4958267;28;19961;-88
2022/07/31 00:13:41;;;;;;;;;;;22.90;39.50;;;;;;4975123;28;19922;-88
2022/07/31 00:16:06;;;;;;;;;;;22.90;39.80;;;;;;4957575;28;20004;-88
2022/07/31 00:18:32;;;;;;;;;;;22.80;40.10;;;;;;4979050;28;19929;-89
2022/07/31 00:20:58;;;;;;;;;;;22.70;40.40;;;;;;4963435;28;20845;-89
2022/07/31 00:23:24;;;;;;;;;;;22.70;40.30;;;;;;4963138;28;19929;-89
2022/07/31 00:25:49;;;;;;;;;;;22.70;40.40;;;;;;4959221;28;19910;-88
2022/07/31 00:28:15;;;;;;;;;;;22.70;40.40;;;;;;4961225;28;19926;-88
2022/07/31 00:30:40;;;;;;;;;;;22.60;40.40;;;;;;4979061;28;19925;-88
2022/07/31 00:33:06;;;;;;;;;;;22.60;40.60;;;;;;4959639;28;19925;-89
2022/07/31 00:35:31;;;;;;;;;;;22.60;40.70;;;;;;4979497;28;19917;-88
2022/07/31 00:37:57;;;;;;;;;;;22.70;41.10;;;;;;4982141;28;19948;-89
2022/07/31 00:40:22;;;;;;;;;;;22.60;41.00;;;;;;4984862;28;19910;-89
2022/07/31 00:42:48;;;;;;;;;;;22.60;41.20;;;;;;4978600;28;19968;-89
2022/07/31 00:45:13;;;;;;;;;;;22.60;41.30;;;;;;4981297;28;20004;-88
2022/07/31 00:47:39;;;;;;;;;;;22.60;41.40;;;;;;4979156;28;20416;-90
2022/07/31 00:50:05;;;;;;;;;;;22.70;41.60;;;;;;4982228;28;19918;-89
2022/07/31 00:52:30;;;;;;;;;;;22.60;41.70;;;;;;4962140;28;20007;-88
2022/07/31 00:54:56;;;;;;;;;;;22.60;42.00;;;;;;4978159;28;19962;-89
2022/07/31 00:57:21;;;;;;;;;;;22.50;42.10;;;;;;4982105;28;19906;-90
2022/07/31 00:59:47;;;;;;;;;;;22.40;42.20;;;;;;4978996;28;19954;-90
2022/07/31 01:02:12;;;;;;;;;;;22.30;42.20;;;;;;4960865;28;19918;-88
2022/07/31 01:04:38;;;;;;;;;;;22.30;42.10;;;;;;4960515;28;19910;-88
2022/07/31 01:07:04;;;;;;;;;;;22.20;42.00;;;;;;4961026;28;19910;-88
2022/07/31 01:09:29;;;;;;;;;;;22.10;42.30;;;;;;4981391;28;19930;-90
2022/07/31 01:12:04;;;;;;;;;;;22.00;42.40;;;;;;4960869;28;19917;-90
2022/07/31 01:14:32;;;;;;;;;;;22.00;42.50;;;;;;4978731;28;20270;-90
2022/07/31 01:16:59;;;;;;;;;;;21.80;42.70;;;;;;4978131;28;19914;-89
2022/07/31 01:19:41;;;;;;;;;;;21.80;42.80;;;;;;4978452;28;20029;-89
2022/07/31 01:22:15;;;;;;;;;;;21.70;42.90;;;;;;4959536;28;20499;-88
2022/07/31 01:24:53;;;;;;;;;;;21.60;43.00;;;;;;4959589;28;19910;-89
2022/07/31 01:27:25;;;;;;;;;;;21.60;43.20;;;;;;4974822;28;19933;-88
2022/07/31 01:29:53;;;;;;;;;;;21.50;43.30;;;;;;4969109;28;19966;-90
2022/07/31 01:32:24;;;;;;;;;;;21.40;43.60;;;;;;4956629;28;19915;-91
2022/07/31 01:35:05;;;;;;;;;;;21.40;43.80;;;;;;4949684;28;19957;-89
2022/07/31 01:37:36;;;;;;;;;;;21.40;44.00;;;;;;4976152;28;19914;-91
2022/07/31 01:40:09;;;;;;;;;;;21.30;44.20;;;;;;4957872;28;20018;-89
2022/07/31 01:42:36;;;;;;;;;;;21.30;44.40;;;;;;4967876;28;19916;-90
2022/07/31 01:45:02;;;;;;;;;;;21.30;44.70;;;;;;4989733;28;19918;-89
2022/07/31 01:47:29;;;;;;;;;;;21.20;44.70;;;;;;4984268;28;19961;-89
2022/07/31 01:49:57;;;;;;;;;;;21.20;44.90;;;;;;4958704;28;20012;-90
2022/07/31 01:52:24;;;;;;;;;;;21.10;45.10;;;;;;4960540;28;19917;-89
2022/07/31 01:54:52;;;;;;;;;;;21.10;45.20;;;;;;4979309;28;19942;-89
2022/07/31 01:57:18;;;;;;;;;;;21.10;45.20;;;;;;4959092;28;19910;-89
2022/07/31 01:59:44;;;;;;;;;;;21.00;45.10;;;;;;4958159;28;19922;-89
2022/07/31 02:02:11;;;;;;;;;;;21.00;45.30;;;;;;4974455;28;19911;-89
2022/07/31 02:04:37;;;;;;;;;;;20.90;45.30;;;;;;4959332;28;19910;-89
2022/07/31 02:07:03;;;;;;;;;;;20.90;45.40;;;;;;4957242;28;19969;-90
2022/07/31 02:09:30;;;;;;;;;;;20.80;45.40;;;;;;4957811;28;19926;-89
2022/07/31 02:11:56;;;;;;;;;;;20.70;45.50;;;;;;4957600;28;19980;-90
2022/07/31 02:14:23;;;;;;;;;;;20.70;45.80;;;;;;4957452;28;19925;-90
2022/07/31 02:16:49;;;;;;;;;;;20.70;46.10;;;;;;4958371;28;19914;-88
2022/07/31 02:19:15;;;;;;;;;;;20.60;46.20;;;;;;4977978;28;20370;-90
2022/07/31 02:21:41;;;;;;;;;;;20.60;46.30;;;;;;4985102;28;19937;-90
2022/07/31 02:24:08;;;;;;;;;;;20.60;46.30;;;;;;4959025;28;19925;-90
2022/07/31 02:26:33;;;;;;;;;;;20.50;46.40;;;;;;4957510;28;19914;-89
2022/07/31 02:28:59;;;;;;;;;;;20.50;46.40;;;;;;4975077;28;19984;-89
2022/07/31 02:31:26;;;;;;;;;;;20.40;46.60;;;;;;4959047;28;19934;-90
2022/07/31 02:33:52;;;;;;;;;;;20.40;46.60;;;;;;4958711;28;19922;-89
2022/07/31 02:36:18;;;;;;;;;;;20.30;46.80;;;;;;4963594;28;19917;-90
2022/07/31 02:38:44;;;;;;;;;;;20.30;46.90;;;;;;4957825;28;19919;-90
2022/07/31 02:41:11;;;;;;;;;;;20.30;47.20;;;;;;4956692;28;19972;-88
2022/07/31 02:43:37;;;;;;;;;;;20.30;47.30;;;;;;4972522;28;19966;-89
2022/07/31 02:46:03;;;;;;;;;;;20.30;47.20;;;;;;4981175;28;19914;-90
2022/07/31 02:48:30;;;;;;;;;;;20.30;47.20;;;;;;4956197;28;19918;-89
2022/07/31 02:50:57;;;;;;;;;;;20.40;47.40;;;;;;4977833;28;19918;-90
2022/07/31 02:53:22;;;;;;;;;;;20.40;47.50;;;;;;4962451;28;20421;-89
2022/07/31 02:55:49;;;;;;;;;;;20.40;47.90;;;;;;4973033;28;20009;-89
2022/07/31 02:58:15;;;;;;;;;;;20.40;48.00;;;;;;4956278;28;19922;-90
2022/07/31 03:00:40;;;;;;;;;;;20.30;48.20;;;;;;4956462;28;19918;-90
2022/07/31 03:03:06;;;;;;;;;;;20.30;48.00;;;;;;4973823;28;19922;-89
2022/07/31 03:05:32;;;;;;;;;;;20.30;47.90;;;;;;4957715;28;19960;-91
2022/07/31 03:07:58;;;;;;;;;;;20.20;48.00;;;;;;4958801;28;19922;-90
2022/07/31 03:10:24;;;;;;;;;;;20.20;47.90;;;;;;4961002;28;19926;-90
2022/07/31 03:12:51;;;;;;;;;;;20.10;48.00;;;;;;4957181;28;19914;-90
2022/07/31 03:15:18;;;;;;;;;;;20.10;48.00;;;;;;4956968;28;19926;-89
2022/07/31 03:17:44;;;;;;;;;;;20.10;48.20;;;;;;4956159;28;19922;-90
2022/07/31 03:20:10;;;;;;;;;;;20.10;48.60;;;;;;4971274;28;19975;-88
2022/07/31 03:22:36;;;;;;;;;;;20.00;48.70;;;;;;4956575;28;19918;-89
2022/07/31 03:25:02;;;;;;;;;;;20.00;48.70;;;;;;4978646;28;19910;-90
2022/07/31 03:27:28;;;;;;;;;;;20.00;48.70;;;;;;4974820;28;19984;-89
2022/07/31 03:29:54;;;;;;;;;;;20.00;48.70;;;;;;4976651;28;19926;-89
2022/07/31 03:32:20;;;;;;;;;;;20.00;48.90;;;;;;4972974;28;19898;-89
2022/07/31 03:34:50;;;;;;;;;;;20.00;49.20;;;;;;4975496;28;19921;-89
2022/07/31 03:37:16;;;;;;;;;;;20.00;49.80;;;;;;4961774;28;19910;-90
2022/07/31 03:39:43;;;;;;;;;;;20.00;49.70;;;;;;4977703;28;19972;-90
2022/07/31 03:42:23;;;;;;;;;;;20.10;49.70;;;;;;4961128;28;19917;-90
2022/07/31 03:44:52;;;;;;;;;;;20.10;50.20;;;;;;4956465;28;19925;-90
2022/07/31 03:47:20;;;;;;;;;;;20.00;49.90;;;;;;4975924;28;19915;-90
2022/07/31 03:49:46;;;;;;;;;;;20.00;49.90;;;;;;4957729;28;20013;-90
2022/07/31 03:52:16;;;;;;;;;;;20.10;49.90;;;;;;4960705;28;19949;-90
2022/07/31 03:54:42;;;;;;;;;;;20.20;49.80;;;;;;4957210;28;19915;-88
2022/07/31 03:57:08;;;;;;;;;;;20.20;49.70;;;;;;4976105;28;19921;-90
2022/07/31 03:59:35;;;;;;;;;;;20.30;49.60;;;;;;4977466;28;19925;-89
2022/07/31 04:02:00;;;;;;;;;;;20.40;49.60;;;;;;4961284;28;19914;-90
2022/07/31 04:04:26;;;;;;;;;;;20.50;49.60;;;;;;4976018;28;19933;-89
2022/07/31 04:06:52;;;;;;;;;;;20.60;49.50;;;;;;4976414;28;19917;-90
2022/07/31 04:09:19;;;;;;;;;;;20.70;49.60;;;;;;4956150;28;19926;-89
2022/07/31 04:11:45;;;;;;;;;;;20.80;49.60;;;;;;4958993;28;19921;-89
2022/07/31 04:14:11;;;;;;;;;;;21.00;49.50;;;;;;4961691;28;19910;-89
2022/07/31 04:16:37;;;;;;;;;;;21.00;49.60;;;;;;4986528;28;19899;-89
2022/07/31 04:19:03;;;;;;;;;;;21.10;49.50;;;;;;4956828;28;20273;-88
2022/07/31 04:21:29;;;;;;;;;;;21.30;49.40;;;;;;4959172;28;20366;-89
2022/07/31 04:23:54;;;;;;;;;;;21.40;49.50;;;;;;4964724;28;20088;-90
2022/07/31 04:26:20;;;;;;;;;;;21.50;49.40;;;;;;4977110;28;21693;-89
2022/07/31 04:28:46;;;;;;;;;;;21.50;49.30;;;;;;4956157;28;19910;-90
2022/07/31 04:31:12;;;;;;;;;;;21.70;49.20;;;;;;4973286;28;19918;-89
2022/07/31 04:33:37;;;;;;;;;;;21.80;49.30;;;;;;4959636;28;20008;-89
2022/07/31 04:36:03;;;;;;;;;;;21.80;49.20;;;;;;4977094;28;19928;-88
2022/07/31 04:38:28;;;;;;;;;;;21.90;49.30;;;;;;4976619;28;20005;-90
2022/07/31 04:40:55;;;;;;;;;;;21.90;49.40;;;;;;4962245;28;19919;-88
2022/07/31 04:43:20;;;;;;;;;;;22.00;49.40;;;;;;4965071;28;19910;-88
2022/07/31 04:45:46;;;;;;;;;;;22.10;49.40;;;;;;4974657;28;19929;-88
2022/07/31 04:48:12;;;;;;;;;;;22.30;49.50;;;;;;4961677;28;19937;-90
2022/07/31 04:50:37;;;;;;;;;;;22.30;49.40;;;;;;4958968;28;19930;-89
2022/07/31 04:53:05;;;;;;;;;;;22.50;49.40;;;;;;4957408;28;20277;-90
2022/07/31 04:55:31;;;;;;;;;;;22.60;49.20;;;;;;4956373;28;20386;-89
2022/07/31 04:57:57;;;;;;;;;;;22.70;49.30;;;;;;4973516;28;19921;-89
2022/07/31 05:00:22;;;;;;;;;;;22.80;49.10;;;;;;4975415;28;19919;-88
2022/07/31 05:02:48;;;;;;;;;;;23.00;49.50;;;;;;4975852;28;19917;-88
2022/07/31 05:05:16;;;;;;;;;;;23.40;50.30;;;;;;4963411;28;19930;-89
2022/07/31 05:07:42;;;;;;;;;;;23.80;50.40;;;;;;4959667;28;19914;-88
2022/07/31 05:10:07;;;;;;;;;;;24.20;49.40;;;;;;4972907;28;19926;-88
2022/07/31 05:12:33;;;;;;;;;;;24.30;48.50;;;;;;4962800;28;19918;-90
2022/07/31 05:14:59;;;;;;;;;;;24.40;47.90;;;;;;4962504;28;19918;-89
2022/07/31 05:17:25;;;;;;;;;;;24.50;47.50;;;;;;4961722;28;19986;-89
2022/07/31 05:19:51;;;;;;;;;;;24.50;47.20;;;;;;4959132;28;20022;-90
2022/07/31 05:22:16;;;;;;;;;;;24.60;47.00;;;;;;4972170;28;19918;-89
2022/07/31 05:24:42;;;;;;;;;;;24.70;46.90;;;;;;4976691;28;19918;-88
2022/07/31 05:27:08;;;;;;;;;;;24.70;46.80;;;;;;4975271;28;20054;-88
2022/07/31 05:29:33;;;;;;;;;;;24.70;46.60;;;;;;4983811;28;19929;-89
2022/07/31 05:32:00;;;;;;;;;;;24.80;46.50;;;;;;4983148;28;20358;-89
2022/07/31 05:34:28;;;;;;;;;;;24.80;46.40;;;;;;4974830;28;19993;-89
2022/07/31 05:36:54;;;;;;;;;;;24.80;46.40;;;;;;4982942;28;19906;-89
2022/07/31 05:39:20;;;;;;;;;;;24.90;46.30;;;;;;4962998;28;19914;-89
2022/07/31 05:41:47;;;;;;;;;;;24.90;46.20;;;;;;4981700;28;19910;-91
2022/07/31 05:44:13;;;;;;;;;;;25.00;46.20;;;;;;4973898;28;20290;-89
2022/07/31 05:46:39;;;;;;;;;;;25.00;46.10;;;;;;4980935;28;19910;-89
2022/07/31 05:49:05;;;;;;;;;;;25.00;46.10;;;;;;4974453;28;19933;-90
2022/07/31 05:51:31;;;;;;;;;;;25.00;46.10;;;;;;4977864;28;20409;-90
2022/07/31 05:53:56;;;;;;;;;;;25.00;46.00;;;;;;4974163;28;19937;-90
2022/07/31 05:56:24;;;;;;;;;;;25.00;46.00;;;;;;4977773;28;19929;-90
2022/07/31 05:58:50;;;;;;;;;;;25.10;46.00;;;;;;4982079;28;19966;-90
2022/07/31 06:01:16;;;;;;;;;;;25.20;45.90;;;;;;4978827;28;19942;-90
2022/07/31 06:03:42;;;;;;;;;;;25.40;45.80;;;;;;4975224;28;20322;-90
2022/07/31 06:06:09;;;;;;;;;;;25.50;45.70;;;;;;4986310;28;19902;-90
2022/07/31 06:08:35;;;;;;;;;;;25.70;45.60;;;;;;4964322;28;19925;-90
2022/07/31 06:11:01;;;;;;;;;;;25.80;45.40;;;;;;4977464;28;19923;-90
2022/07/31 06:13:28;;;;;;;;;;;26.00;45.30;;;;;;4982385;28;19925;-90
2022/07/31 06:15:55;;;;;;;;;;;26.20;45.20;;;;;;4974058;28;19928;-89
2022/07/31 06:18:21;;;;;;;;;;;26.40;45.00;;;;;;4974869;28;20385;-89
2022/07/31 06:20:47;;;;;;;;;;;26.70;44.80;;;;;;4978032;28;19917;-89
2022/07/31 06:23:14;;;;;;;;;;;27.00;44.70;;;;;;4974200;28;19914;-90
2022/07/31 06:25:39;;;;;;;;;;;27.20;44.50;;;;;;4962227;28;19929;-90
2022/07/31 06:28:06;;;;;;;;;;;27.40;44.40;;;;;;4961250;28;19910;-90
2022/07/31 06:30:32;;;;;;;;;;;27.70;44.00;;;;;;4959024;28;20378;-90
2022/07/31 06:32:59;;;;;;;;;;;27.80;43.80;;;;;;4980965;28;20008;-91
2022/07/31 06:35:26;;;;;;;;;;;27.90;43.60;;;;;;4967696;28;19902;-89
2022/07/31 06:37:56;;;;;;;;;;;28.00;43.30;;;;;;4977301;28;19910;-91
2022/07/31 06:40:26;;;;;;;;;;;28.10;43.10;;;;;;4974776;28;19918;-90
2022/07/31 06:42:52;;;;;;;;;;;28.20;42.90;;;;;;4960234;28;19993;-89
2022/07/31 06:45:17;;;;;;;;;;;28.30;42.80;;;;;;4957928;28;19918;-89
2022/07/31 06:47:43;;;;;;;;;;;28.40;42.60;;;;;;4978018;28;19956;-90
2022/07/31 06:50:09;;;;;;;;;;;28.60;42.40;;;;;;4962587;28;20603;-90
2022/07/31 06:52:35;;;;;;;;;;;28.70;42.20;;;;;;4979131;28;19956;-89
2022/07/31 06:55:02;;;;;;;;;;;28.80;42.00;;;;;;4975841;28;19949;-89
2022/07/31 06:57:28;;;;;;;;;;;28.90;41.70;;;;;;4960109;28;19915;-91
2022/07/31 06:59:54;;;;;;;;;;;29.00;41.40;;;;;;4955379;28;20019;-89
2022/07/31 07:02:21;;;;;;;;;;;29.00;41.40;;;;;;4973034;28;20349;-89
2022/07/31 07:04:47;;;;;;;;;;;29.10;41.30;;;;;;4968512;28;20254;-89
2022/07/31 07:07:13;;;;;;;;;;;29.20;41.20;;;;;;4976764;28;20313;-90
2022/07/31 07:09:39;;;;;;;;;;;29.20;41.00;;;;;;4976276;28;19933;-90
2022/07/31 07:12:05;;;;;;;;;;;29.20;40.80;;;;;;4957823;28;19917;-90
2022/07/31 07:14:31;;;;;;;;;;;29.20;40.60;;;;;;4959683;28;20282;-89
2022/07/31 07:16:57;;;;;;;;;;;29.30;40.60;;;;;;4955666;28;19910;-89
2022/07/31 07:19:23;;;;;;;;;;;29.30;40.40;;;;;;4965022;28;19925;-89
2022/07/31 07:21:49;;;;;;;;;;;29.30;40.30;;;;;;4971572;28;19953;-90
2022/07/31 07:24:15;;;;;;;;;;;29.30;40.30;;;;;;4956245;28;20330;-89
2022/07/31 07:26:40;;;;;;;;;;;29.30;40.20;;;;;;4966325;28;19915;-89
2022/07/31 07:29:06;;;;;;;;;;;29.40;40.20;;;;;;4961703;28;19949;-89
2022/07/31 07:31:32;;;;;;;;;;;29.40;40.20;;;;;;4947971;28;19918;-90
2022/07/31 07:33:59;;;;;;;;;;;29.40;40.10;;;;;;4964897;28;19914;-89
2022/07/31 07:36:24;;;;;;;;;;;29.50;40.10;;;;;;4961802;23;20436;-90
2022/07/31 07:38:52;;;;;;;;;;;29.60;40.00;;;;;;4957760;28;19915;-89
2022/07/31 07:41:18;;;;;;;;;;;29.80;40.00;;;;;;4971317;28;20354;-91
2022/07/31 07:43:44;;;;;;;;;;;30.00;39.90;;;;;;4954824;28;20374;-89
2022/07/31 07:46:10;;;;;;;;;;;30.20;39.60;;;;;;4953927;29;20259;-89
2022/07/31 07:48:36;;;;;;;;;;;30.40;39.20;;;;;;4957075;29;19915;-89
2022/07/31 07:51:02;;;;;;;;;;;30.70;39.20;;;;;;4973189;28;19970;-89
2022/07/31 07:53:27;;;;;;;;;;;31.10;38.90;;;;;;4961657;29;19911;-89
2022/07/31 07:55:54;;;;;;;;;;;31.50;38.60;;;;;;4962964;28;19958;-91
2022/07/31 07:58:20;;;;;;;;;;;31.80;38.20;;;;;;4964442;28;19922;-90
2022/07/31 08:00:47;;;;;;;;;;;32.10;37.90;;;;;;4956086;28;19930;-89
2022/07/31 08:03:15;;;;;;;;;;;32.40;37.60;;;;;;4958272;29;19914;-90
2022/07/31 08:05:42;;;;;;;;;;;32.60;37.20;;;;;;4953424;29;20358;-90
2022/07/31 08:08:09;;;;;;;;;;;32.80;36.60;;;;;;4957415;29;19918;-90
2022/07/31 08:10:38;;;;;;;;;;;32.90;36.40;;;;;;4958596;28;19950;-90
2022/07/31 08:13:06;;;;;;;;;;;33.10;36.00;;;;;;4959539;29;20555;-91
2022/07/31 08:15:32;;;;;;;;;;;33.30;35.70;;;;;;4964092;28;19915;-90
2022/07/31 08:17:58;;;;;;;;;;;33.50;35.40;;;;;;4959040;29;19922;-89
2022/07/31 08:20:24;;;;;;;;;;;33.90;35.20;;;;;;4968508;28;19925;-90
2022/07/31 08:22:52;;;;;;;;;;;34.30;34.70;;;;;;4986005;28;19921;-89
2022/07/31 08:27:48;;;;;;;;;;;35.10;33.50;;;;;;4999781;23;19926;-86
2022/07/31 08:30:14;;;;;;;;;;;35.40;33.00;;;;;;4959435;28;19941;-86
2022/07/31 08:32:40;;;;;;;;;;;35.60;32.20;;;;;;4993768;28;20012;-86
2022/07/31 08:35:06;;;;;;;;;;;35.80;32.00;;;;;;4978791;28;19949;-86
2022/07/31 08:37:32;;;;;;;;;;;36.00;30.80;;;;;;4996099;28;20042;-86
2022/07/31 08:40:00;;;;;;;;;;;36.10;30.20;;;;;;4963954;28;19921;-87
2022/07/31 08:42:26;;;;;;;;;;;36.30;29.90;;;;;;4995106;28;19920;-86
2022/07/31 08:44:51;;;;;;;;;;;36.70;28.90;;;;;;4996359;28;19917;-87
2022/07/31 08:47:18;;;;;;;;;;;37.10;28.30;;;;;;4980675;28;19910;-86
2022/07/31 08:49:44;;;;;;;;;;;37.20;26.80;;;;;;4982717;28;19918;-86
2022/07/31 08:52:17;;;;;;;;;;;37.30;26.20;;;;;;4977400;28;19918;-87
2022/07/31 08:54:44;;;;;;;;;;;37.30;26.20;;;;;;4979859;28;20005;-86
2022/07/31 08:57:10;;;;;;;;;;;37.50;26.30;;;;;;4990855;28;19910;-87
2022/07/31 08:59:42;;;;;;;;;;;37.50;26.10;;;;;;4981054;28;19918;-86
2022/07/31 09:02:08;;;;;;;;;;;37.70;26.00;;;;;;4979949;28;19916;-87
2022/07/31 09:04:33;;;;;;;;;;;37.80;25.80;;;;;;4980784;28;20000;-86
2022/07/31 09:07:00;;;;;;;;;;;37.80;25.60;;;;;;4981265;28;20347;-86
2022/07/31 09:09:26;;;;;;;;;;;37.80;25.80;;;;;;4981569;28;19918;-87
2022/07/31 09:11:53;;;;;;;;;;;37.80;25.70;;;;;;4997330;28;19925;-87
2022/07/31 09:14:33;;;;;;;;;;;38.00;25.90;;;;;;4980996;28;20274;-87
2022/07/31 09:16:59;;;;;;;;;;;38.20;25.50;;;;;;5000318;28;20001;-86
2022/07/31 09:19:34;;;;;;;;;;;38.10;25.10;;;;;;4998774;28;19917;-86
2022/07/31 09:22:00;;;;;;;;;;;38.00;24.80;;;;;;4992969;28;19976;-87
2022/07/31 09:24:29;;;;;;;;;;;37.90;25.10;;;;;;5017972;28;20358;-86
2022/07/31 09:27:06;;;;;;;;;;;37.80;25.20;;;;;;4990194;28;19937;-85
2022/07/31 09:29:32;;;;;;;;;;;37.70;25.10;;;;;;4998956;28;19996;-85
2022/07/31 09:32:06;;;;;;;;;;;37.50;25.20;;;;;;5014834;28;19918;-86
2022/07/31 09:34:31;;;;;;;;;;;37.40;25.40;;;;;;5016277;28;19913;-87
2022/07/31 09:37:06;;;;;;;;;;;37.40;25.60;;;;;;4985458;28;20373;-87
2022/07/31 09:39:31;;;;;;;;;;;37.30;25.20;;;;;;5006869;28;19916;-86
2022/07/31 09:41:57;;;;;;;;;;;37.00;25.50;;;;;;5014601;28;19917;-86
2022/07/31 09:44:22;;;;;;;;;;;37.00;25.70;;;;;;5015745;28;19920;-87
2022/07/31 09:46:49;;;;;;;;;;;36.90;25.50;;;;;;5016339;28;19914;-86
2022/07/31 09:49:14;;;;;;;;;;;37.00;25.80;;;;;;5016455;28;19921;-86
2022/07/31 09:51:44;;;;;;;;;;;36.90;25.80;;;;;;5014975;28;20354;-87
2022/07/31 09:54:25;;;;;;;;;;;37.10;26.10;;;;;;4998446;28;19913;-86
2022/07/31 09:56:51;;;;;;;;;;;37.40;25.90;;;;;;4985056;28;19918;-87
2022/07/31 09:59:17;;;;;;;;;;;37.50;25.80;;;;;;4975656;28;20135;-87
2022/07/31 10:01:44;;;;;;;;;;;37.70;25.30;;;;;;4995190;28;20378;-87
2022/07/31 10:06:35;;;;;;;;;;;37.80;25.40;;;;;;4995251;28;20001;-87
2022/07/31 10:09:01;;;;;;;;;;;37.80;25.40;;;;;;4995564;28;19913;-87
2022/07/31 10:11:28;;;;;;;;;;;38.00;25.50;;;;;;4982744;28;19929;-87
2022/07/31 10:13:55;;;;;;;;;;;37.90;25.40;;;;;;5016203;28;19921;-87
2022/07/31 10:16:24;;;;;;;;;;;38.10;25.50;;;;;;4995914;28;20018;-87
2022/07/31 10:19:31;;;;;;;;;;;38.20;25.40;;;;;;4978920;28;19914;-86
2022/07/31 10:22:00;;;;;;;;;;;38.20;24.80;;;;;;4993897;28;20057;-86
2022/07/31 10:24:27;;;;;;;;;;;38.40;24.80;;;;;;4995822;28;19929;-86
2022/07/31 10:27:09;;;;;;;;;;;38.70;24.50;;;;;;4987645;28;19952;-87
2022/07/31 10:29:37;;;;;;;;;;;38.90;24.00;;;;;;4998384;28;20002;-86
2022/07/31 10:32:04;;;;;;;;;;;39.20;23.80;;;;;;4993849;28;20358;-87
2022/07/31 10:34:31;;;;;;;;;;;39.30;23.80;;;;;;5016548;28;19910;-88
2022/07/31 10:37:00;;;;;;;;;;;39.40;23.40;;;;;;4986964;28;20004;-86
2022/07/31 10:39:59;;;;;;;;;;;39.40;23.20;;;;;;4994475;28;19992;-86
2022/07/31 10:42:30;;;;;;;;;;;39.50;23.50;;;;;;4956940;28;19920;-86
2022/07/31 10:45:04;;;;;;;;;;;39.90;23.70;;;;;;5012944;28;19913;-87
2022/07/31 10:47:29;;;;;;;;;;;40.30;23.40;;;;;;5000540;28;19957;-86
2022/07/31 10:49:55;;;;;;;;;;;40.80;23.20;;;;;;4995045;28;19996;-86
2022/07/31 10:52:35;;;;;;;;;;;40.90;22.70;;;;;;4988623;28;20531;-86
2022/07/31 10:55:12;;;;;;;;;;;40.90;22.80;;;;;;4997005;28;19910;-86
2022/07/31 10:57:38;;;;;;;;;;;40.80;22.80;;;;;;4997828;28;19992;-88
2022/07/31 11:00:11;;;;;;;;;;;40.80;22.70;;;;;;4977904;28;20007;-86
2022/07/31 11:02:36;;;;;;;;;;;40.70;22.90;;;;;;4976474;28;20024;-88
2022/07/31 11:05:22;;;;;;;;;;;40.50;22.50;;;;;;4977701;28;19969;-88
2022/07/31 11:07:58;;;;;;;;;;;40.20;22.60;;;;;;5012103;28;19909;-89
2022/07/31 11:10:24;;;;;;;;;;;40.10;22.70;;;;;;4996093;28;19922;-88
2022/07/31 11:12:59;;;;;;;;;;;39.80;22.70;;;;;;4996943;28;19945;-85
2022/07/31 11:15:25;;;;;;;;;;;39.50;22.90;;;;;;4994525;28;19921;-86
2022/07/31 11:17:51;;;;;;;;;;;39.20;23.20;;;;;;4971598;28;19930;-86
2022/07/31 11:20:17;;;;;;;;;;;38.90;23.50;;;;;;4975541;28;19918;-86
2022/07/31 11:22:50;;;;;;;;;;;38.70;23.90;;;;;;4997550;28;19932;-87
2022/07/31 11:25:16;;;;;;;;;;;38.50;23.90;;;;;;4994621;28;19916;-85
2022/07/31 11:27:42;;;;;;;;;;;38.30;24.20;;;;;;4993333;28;19921;-87
2022/07/31 11:30:07;;;;;;;;;;;38.30;24.30;;;;;;4994496;28;20362;-85
2022/07/31 11:32:33;;;;;;;;;;;38.20;24.40;;;;;;4992138;28;19964;-86
2022/07/31 11:34:59;;;;;;;;;;;38.20;24.60;;;;;;5014027;28;20369;-85
2022/07/31 11:37:25;;;;;;;;;;;38.40;24.80;;;;;;4983481;28;19917;-85
2022/07/31 11:39:52;;;;;;;;;;;38.70;24.80;;;;;;4994616;28;20360;-86
2022/07/31 11:42:18;;;;;;;;;;;39.00;24.60;;;;;;4977577;28;19976;-87
2022/07/31 11:44:43;;;;;;;;;;;39.30;24.50;;;;;;4994946;28;19910;-85
2022/07/31 11:47:09;;;;;;;;;;;39.70;24.40;;;;;;4993534;28;19914;-85
2022/07/31 11:49:35;;;;;;;;;;;40.40;23.90;;;;;;4998860;28;19909;-93
2022/07/31 11:52:06;;;;;;;;;;;40.80;23.40;;;;;;4974741;28;19928;-92
2022/07/31 11:54:32;;;;;;;;;;;40.90;23.10;;;;;;4978928;28;19918;-92
2022/07/31 11:56:58;;;;;;;;;;;41.00;23.20;;;;;;4993467;28;19933;-91
2022/07/31 11:59:36;;;;;;;;;;;40.90;23.00;;;;;;4979121;28;19933;-93
2022/07/31 12:02:02;;;;;;;;;;;40.80;22.90;;;;;;4981615;28;19925;-91
2022/07/31 12:04:28;;;;;;;;;;;40.70;23.10;;;;;;4986513;28;19910;-91
2022/07/31 12:06:58;;;;;;;;;;;40.70;23.20;;;;;;4978650;28;19929;-91
2022/07/31 12:09:24;;;;;;;;;;;40.60;23.10;;;;;;4972845;28;20596;-90
2022/07/31 12:11:50;;;;;;;;;;;40.50;23.20;;;;;;4980003;28;19946;-91
2022/07/31 12:14:33;;;;;;;;;;;40.40;22.90;;;;;;5003415;28;19938;-90
2022/07/31 12:16:59;;;;;;;;;;;40.10;22.90;;;;;;4968646;28;19926;-91
2022/07/31 12:19:25;;;;;;;;;;;39.80;23.50;;;;;;4978495;28;19922;-91
2022/07/31 12:21:50;;;;;;;;;;;39.50;23.60;;;;;;4977226;28;19921;-90
2022/07/31 12:24:16;;;;;;;;;;;39.30;23.90;;;;;;4981286;28;19918;-92
2022/07/31 12:26:42;;;;;;;;;;;39.10;23.80;;;;;;4988201;28;20021;-92
2022/07/31 12:29:09;;;;;;;;;;;38.80;23.90;;;;;;4983530;28;19942;-91
2022/07/31 12:31:44;;;;;;;;;;;38.70;24.60;;;;;;4984254;28;20430;-90
2022/07/31 12:34:10;;;;;;;;;;;38.40;24.90;;;;;;4998115;28;19925;-91
2022/07/31 12:36:36;;;;;;;;;;;38.40;25.20;;;;;;4981915;28;19918;-90
2022/07/31 12:39:02;;;;;;;;;;;38.40;25.10;;;;;;4995436;28;19922;-92
2022/07/31 12:41:28;;;;;;;;;;;38.40;25.20;;;;;;4974992;28;19914;-92
2022/07/31 12:43:54;;;;;;;;;;;38.40;24.60;;;;;;4995829;28;19918;-91
2022/07/31 12:46:20;;;;;;;;;;;38.40;24.50;;;;;;4982261;28;19977;-92
2022/07/31 12:48:46;;;;;;;;;;;38.40;24.20;;;;;;4980134;28;19910;-91
2022/07/31 12:51:12;;;;;;;;;;;38.30;24.20;;;;;;4979062;28;19949;-90
2022/07/31 12:53:37;;;;;;;;;;;38.30;24.00;;;;;;4981634;28;20005;-92
2022/07/31 12:56:06;;;;;;;;;;;38.40;23.80;;;;;;4981481;28;20008;-92
2022/07/31 12:58:31;;;;;;;;;;;38.30;23.30;;;;;;4997054;28;19922;-93
2022/07/31 13:00:56;;;;;;;;;;;38.30;23.10;;;;;;4985207;28;19933;-91
2022/07/31 13:03:22;;;;;;;;;;;38.30;23.20;;;;;;4992092;28;20267;-93
2022/07/31 13:05:48;;;;;;;;;;;38.30;23.30;;;;;;4989953;28;20271;-91
2022/07/31 13:08:13;;;;;;;;;;;38.30;23.50;;;;;;4985739;28;19914;-92
2022/07/31 13:10:39;;;;;;;;;;;38.40;23.60;;;;;;4987573;28;19921;-91
2022/07/31 13:13:04;;;;;;;;;;;38.40;23.70;;;;;;4991717;28;19950;-91
2022/07/31 13:15:30;;;;;;;;;;;38.40;23.60;;;;;;4984302;28;20654;-91
2022/07/31 13:17:56;;;;;;;;;;;38.40;23.60;;;;;;4985216;28;19925;-90
2022/07/31 13:20:22;;;;;;;;;;;38.30;23.70;;;;;;4997202;28;19918;-91
2022/07/31 13:22:47;;;;;;;;;;;38.20;23.80;;;;;;4989940;28;19996;-91
2022/07/31 13:25:13;;;;;;;;;;;38.10;23.90;;;;;;4982435;28;19985;-91
2022/07/31 13:27:39;;;;;;;;;;;38.00;23.90;;;;;;4977166;28;19921;-90
2022/07/31 13:30:05;;;;;;;;;;;37.80;24.00;;;;;;4977650;28;20020;-92
2022/07/31 13:32:31;;;;;;;;;;;37.70;24.50;;;;;;4972211;28;19946;-91
2022/07/31 13:34:59;;;;;;;;;;;37.30;25.70;;;;;;4962330;28;19914;-92
2022/07/31 13:37:25;;;;;;;;;;;36.80;26.30;;;;;;4962097;28;19918;-91
2022/07/31 13:39:54;;;;;;;;;;;36.30;27.40;;;;;;4979094;28;19980;-92
2022/07/31 13:42:20;;;;;;;;;;;35.80;28.00;;;;;;4984745;28;19925;-91
2022/07/31 13:44:45;;;;;;;;;;;35.50;28.40;;;;;;4967133;28;19914;-92
2022/07/31 13:47:10;;;;;;;;;;;35.20;28.40;;;;;;4975863;28;20400;-93
2022/07/31 13:49:36;;;;;;;;;;;35.00;28.60;;;;;;4973830;28;20359;-92
2022/07/31 13:52:01;;;;;;;;;;;34.90;28.60;;;;;;4979672;28;19929;-90
2022/07/31 13:54:27;;;;;;;;;;;34.80;28.60;;;;;;4979093;28;19936;-91
2022/07/31 13:56:53;;;;;;;;;;;34.80;28.70;;;;;;4979587;28;19925;-91
2022/07/31 13:59:19;;;;;;;;;;;34.80;28.70;;;;;;4978000;28;20019;-90
2022/07/31 14:01:49;;;;;;;;;;;34.70;28.70;;;;;;4977760;28;20005;-92
2022/07/31 14:04:15;;;;;;;;;;;34.70;28.80;;;;;;4978312;28;19993;-91
2022/07/31 14:06:40;;;;;;;;;;;34.70;28.90;;;;;;4980170;28;20484;-92
2022/07/31 14:09:06;;;;;;;;;;;34.60;28.90;;;;;;4994632;28;20024;-85
2022/07/31 14:11:31;;;;;;;;;;;34.60;28.80;;;;;;4976665;28;20386;-85
2022/07/31 14:13:57;;;;;;;;;;;34.60;28.70;;;;;;4997911;28;19936;-86
2022/07/31 14:16:22;;;;;;;;;;;34.60;28.80;;;;;;4998271;28;19918;-86
2022/07/31 14:18:51;;;;;;;;;;;34.60;28.80;;;;;;4995831;28;20000;-86
2022/07/31 14:21:16;;;;;;;;;;;34.60;28.80;;;;;;4996742;28;20803;-84